sensor_id;sensor_type;location;lat;lon;timestamp;P1;durP1;ratioP1;P2;durP2;ratioP2
5821;SDS011;2937;48.562;8.022;2023-09-18T00:04:44;6.80;;;4.80;;
5821;SDS011;2937;48.562;8.022;2023-09-18T00:09:37;7.17;;;3.90;;
5821;SDS011;2937;48.562;8.022;2023-09-18T00:14:31;11.87;;;5.60;;
5821;SDS011;2937;48.562;8.022;2023-09-18T00:19:23;5.90;;;4.40;;
5821;SDS011;2937;48.562;8.022;2023-09-18T00:24:16;9.23;;;4.73;;
5821;SDS011;2937;48.562;8.022;2023-09-18T00:29:09;5.77;;;4.23;;
5821;SDS011;2937;48.562;8.022;2023-09-18T00:34:03;5.83;;;3.43;;
5821;SDS011;2937;48.562;8.022;2023-09-18T00:38:56;7.37;;;4.37;;
5821;SDS011;2937;48.562;8.022;2023-09-18T00:43:48;6.87;;;4.07;;
5821;SDS011;2937;48.562;8.022;2023-09-18T00:48:41;7.60;;;3.53;;
5821;SDS011;2937;48.562;8.022;2023-09-18T00:53:35;10.03;;;3.77;;
5821;SDS011;2937;48.562;8.022;2023-09-18T00:58:27;5.10;;;3.10;;
5821;SDS011;2937;48.562;8.022;2023-09-18T01:03:20;10.30;;;3.63;;
5821;SDS011;2937;48.562;8.022;2023-09-18T01:08:13;11.60;;;3.80;;
5821;SDS011;2937;48.562;8.022;2023-09-18T01:13:08;10.93;;;4.27;;
5821;SDS011;2937;48.562;8.022;2023-09-18T01:18:05;8.17;;;4.13;;
5821;SDS011;2937;48.562;8.022;2023-09-18T01:22:59;12.73;;;4.10;;
5821;SDS011;2937;48.562;8.022;2023-09-18T01:27:51;12.77;;;4.80;;
5821;SDS011;2937;48.562;8.022;2023-09-18T01:32:44;8.57;;;5.43;;
5821;SDS011;2937;48.562;8.022;2023-09-18T01:37:38;8.60;;;4.47;;
5821;SDS011;2937;48.562;8.022;2023-09-18T01:42:33;13.07;;;4.90;;
5821;SDS011;2937;48.562;8.022;2023-09-18T01:47:26;6.63;;;4.80;;
5821;SDS011;2937;48.562;8.022;2023-09-18T01:52:19;7.23;;;4.60;;
5821;SDS011;2937;48.562;8.022;2023-09-18T01:57:12;11.47;;;4.20;;
5821;SDS011;2937;48.562;8.022;2023-09-18T02:02:07;7.80;;;4.30;;
5821;SDS011;2937;48.562;8.022;2023-09-18T02:07:03;12.60;;;4.60;;
5821;SDS011;2937;48.562;8.022;2023-09-18T02:11:56;7.50;;;4.43;;
5821;SDS011;2937;48.562;8.022;2023-09-18T02:16:49;10.03;;;5.07;;
5821;SDS011;2937;48.562;8.022;2023-09-18T02:21:43;8.57;;;4.90;;
5821;SDS011;2937;48.562;8.022;2023-09-18T02:26:36;10.33;;;5.57;;
5821;SDS011;2937;48.562;8.022;2023-09-18T02:31:30;13.40;;;5.80;;
5821;SDS011;2937;48.562;8.022;2023-09-18T02:36:23;11.37;;;5.47;;
5821;SDS011;2937;48.562;8.022;2023-09-18T02:41:17;10.87;;;6.20;;
5821;SDS011;2937;48.562;8.022;2023-09-18T02:46:10;7.30;;;5.40;;
5821;SDS011;2937;48.562;8.022;2023-09-18T02:51:03;10.03;;;6.50;;
5821;SDS011;2937;48.562;8.022;2023-09-18T02:55:56;7.57;;;5.80;;
5821;SDS011;2937;48.562;8.022;2023-09-18T03:00:50;11.70;;;6.43;;
5821;SDS011;2937;48.562;8.022;2023-09-18T03:05:44;8.43;;;5.60;;
5821;SDS011;2937;48.562;8.022;2023-09-18T03:10:37;13.70;;;7.27;;
5821;SDS011;2937;48.562;8.022;2023-09-18T03:15:30;15.50;;;7.73;;
5821;SDS011;2937;48.562;8.022;2023-09-18T03:20:25;16.00;;;7.17;;
5821;SDS011;2937;48.562;8.022;2023-09-18T03:25:19;19.10;;;7.03;;
5821;SDS011;2937;48.562;8.022;2023-09-18T03:30:11;16.40;;;7.10;;
5821;SDS011;2937;48.562;8.022;2023-09-18T03:35:07;17.40;;;6.13;;
5821;SDS011;2937;48.562;8.022;2023-09-18T03:40:09;14.93;;;7.47;;
5821;SDS011;2937;48.562;8.022;2023-09-18T03:45:02;14.73;;;6.43;;
5821;SDS011;2937;48.562;8.022;2023-09-18T03:49:55;11.07;;;5.20;;
5821;SDS011;2937;48.562;8.022;2023-09-18T03:54:48;12.70;;;5.43;;
5821;SDS011;2937;48.562;8.022;2023-09-18T03:59:42;8.77;;;4.83;;
5821;SDS011;2937;48.562;8.022;2023-09-18T04:04:34;9.50;;;4.30;;
5821;SDS011;2937;48.562;8.022;2023-09-18T04:09:27;11.47;;;4.80;;
5821;SDS011;2937;48.562;8.022;2023-09-18T04:14:19;10.17;;;4.47;;
5821;SDS011;2937;48.562;8.022;2023-09-18T04:19:13;9.70;;;4.40;;
5821;SDS011;2937;48.562;8.022;2023-09-18T04:24:06;6.70;;;4.07;;
5821;SDS011;2937;48.562;8.022;2023-09-18T04:28:59;6.60;;;3.30;;
5821;SDS011;2937;48.562;8.022;2023-09-18T04:33:53;4.63;;;3.17;;
5821;SDS011;2937;48.562;8.022;2023-09-18T04:38:47;7.63;;;3.90;;
5821;SDS011;2937;48.562;8.022;2023-09-18T04:43:40;10.00;;;3.73;;
5821;SDS011;2937;48.562;8.022;2023-09-18T04:48:34;9.93;;;3.30;;
5821;SDS011;2937;48.562;8.022;2023-09-18T04:53:28;4.00;;;3.00;;
5821;SDS011;2937;48.562;8.022;2023-09-18T04:58:22;5.50;;;3.07;;
5821;SDS011;2937;48.562;8.022;2023-09-18T05:03:15;6.50;;;3.17;;
5821;SDS011;2937;48.562;8.022;2023-09-18T05:08:08;5.87;;;3.03;;
5821;SDS011;2937;48.562;8.022;2023-09-18T05:13:01;8.70;;;2.63;;
5821;SDS011;2937;48.562;8.022;2023-09-18T05:17:56;5.80;;;2.73;;
5821;SDS011;2937;48.562;8.022;2023-09-18T05:22:50;4.10;;;2.30;;
5821;SDS011;2937;48.562;8.022;2023-09-18T05:27:44;6.47;;;2.30;;
5821;SDS011;2937;48.562;8.022;2023-09-18T05:32:37;9.70;;;2.30;;
5821;SDS011;2937;48.562;8.022;2023-09-18T05:37:31;6.53;;;2.43;;
5821;SDS011;2937;48.562;8.022;2023-09-18T05:42:24;10.30;;;2.47;;
5821;SDS011;2937;48.562;8.022;2023-09-18T05:47:16;4.43;;;2.20;;
5821;SDS011;2937;48.562;8.022;2023-09-18T05:52:09;5.17;;;2.00;;
5821;SDS011;2937;48.562;8.022;2023-09-18T05:57:03;6.60;;;2.20;;
5821;SDS011;2937;48.562;8.022;2023-09-18T06:01:56;5.57;;;1.73;;
5821;SDS011;2937;48.562;8.022;2023-09-18T06:06:48;6.87;;;2.00;;
5821;SDS011;2937;48.562;8.022;2023-09-18T06:11:42;3.93;;;2.30;;
5821;SDS011;2937;48.562;8.022;2023-09-18T06:16:36;3.30;;;1.60;;
5821;SDS011;2937;48.562;8.022;2023-09-18T06:21:29;4.83;;;2.00;;
5821;SDS011;2937;48.562;8.022;2023-09-18T06:26:22;6.87;;;1.70;;
5821;SDS011;2937;48.562;8.022;2023-09-18T06:31:14;2.67;;;1.70;;
5821;SDS011;2937;48.562;8.022;2023-09-18T06:36:09;5.80;;;2.13;;
5821;SDS011;2937;48.562;8.022;2023-09-18T06:41:02;5.60;;;1.90;;
5821;SDS011;2937;48.562;8.022;2023-09-18T06:45:55;2.07;;;1.40;;
5821;SDS011;2937;48.562;8.022;2023-09-18T06:50:49;4.20;;;1.80;;
5821;SDS011;2937;48.562;8.022;2023-09-18T06:55:43;3.80;;;1.67;;
5821;SDS011;2937;48.562;8.022;2023-09-18T07:00:35;3.70;;;1.57;;
5821;SDS011;2937;48.562;8.022;2023-09-18T07:05:28;3.33;;;1.87;;
5821;SDS011;2937;48.562;8.022;2023-09-18T07:10:21;5.00;;;1.70;;
5821;SDS011;2937;48.562;8.022;2023-09-18T07:15:15;2.77;;;1.70;;
5821;SDS011;2937;48.562;8.022;2023-09-18T07:20:08;3.10;;;1.67;;
5821;SDS011;2937;48.562;8.022;2023-09-18T07:25:06;3.27;;;1.90;;
5821;SDS011;2937;48.562;8.022;2023-09-18T07:29:59;4.30;;;1.80;;
5821;SDS011;2937;48.562;8.022;2023-09-18T07:34:53;3.60;;;1.83;;
5821;SDS011;2937;48.562;8.022;2023-09-18T07:39:46;9.97;;;2.20;;
5821;SDS011;2937;48.562;8.022;2023-09-18T07:44:38;4.20;;;2.20;;
5821;SDS011;2937;48.562;8.022;2023-09-18T07:49:31;8.73;;;2.40;;
5821;SDS011;2937;48.562;8.022;2023-09-18T07:54:25;6.97;;;2.30;;
5821;SDS011;2937;48.562;8.022;2023-09-18T07:59:18;7.33;;;2.63;;
5821;SDS011;2937;48.562;8.022;2023-09-18T08:04:10;6.23;;;2.60;;
5821;SDS011;2937;48.562;8.022;2023-09-18T08:09:03;6.13;;;2.30;;
5821;SDS011;2937;48.562;8.022;2023-09-18T08:13:58;4.23;;;2.50;;
5821;SDS011;2937;48.562;8.022;2023-09-18T08:18:50;4.70;;;2.33;;
5821;SDS011;2937;48.562;8.022;2023-09-18T08:23:44;4.60;;;1.87;;
5821;SDS011;2937;48.562;8.022;2023-09-18T08:28:37;4.30;;;2.20;;
5821;SDS011;2937;48.562;8.022;2023-09-18T08:33:36;4.67;;;2.07;;
5821;SDS011;2937;48.562;8.022;2023-09-18T08:38:28;5.17;;;2.20;;
5821;SDS011;2937;48.562;8.022;2023-09-18T08:43:21;7.63;;;2.03;;
5821;SDS011;2937;48.562;8.022;2023-09-18T08:48:14;4.10;;;2.10;;
5821;SDS011;2937;48.562;8.022;2023-09-18T08:53:11;8.50;;;2.10;;
5821;SDS011;2937;48.562;8.022;2023-09-18T08:58:05;6.90;;;2.07;;
5821;SDS011;2937;48.562;8.022;2023-09-18T09:02:58;3.67;;;1.60;;
5821;SDS011;2937;48.562;8.022;2023-09-18T09:07:51;4.13;;;2.10;;
5821;SDS011;2937;48.562;8.022;2023-09-18T09:12:49;6.23;;;1.70;;
5821;SDS011;2937;48.562;8.022;2023-09-18T09:17:42;2.93;;;1.70;;
5821;SDS011;2937;48.562;8.022;2023-09-18T09:22:35;2.80;;;1.50;;
5821;SDS011;2937;48.562;8.022;2023-09-18T09:27:28;4.13;;;1.80;;
5821;SDS011;2937;48.562;8.022;2023-09-18T09:32:22;3.13;;;1.80;;
5821;SDS011;2937;48.562;8.022;2023-09-18T09:37:15;3.07;;;1.60;;
5821;SDS011;2937;48.562;8.022;2023-09-18T09:42:07;5.83;;;1.60;;
5821;SDS011;2937;48.562;8.022;2023-09-18T09:47:00;3.57;;;1.70;;
5821;SDS011;2937;48.562;8.022;2023-09-18T09:51:54;2.93;;;1.47;;
5821;SDS011;2937;48.562;8.022;2023-09-18T09:56:47;3.20;;;1.30;;
5821;SDS011;2937;48.562;8.022;2023-09-18T10:01:42;2.27;;;1.53;;
5821;SDS011;2937;48.562;8.022;2023-09-18T10:06:36;4.73;;;1.43;;
5821;SDS011;2937;48.562;8.022;2023-09-18T10:11:30;2.90;;;1.30;;
5821;SDS011;2937;48.562;8.022;2023-09-18T10:16:23;1.60;;;1.20;;
5821;SDS011;2937;48.562;8.022;2023-09-18T10:21:22;3.20;;;1.47;;
5821;SDS011;2937;48.562;8.022;2023-09-18T10:26:20;3.20;;;1.83;;
5821;SDS011;2937;48.562;8.022;2023-09-18T10:31:17;3.23;;;1.60;;
5821;SDS011;2937;48.562;8.022;2023-09-18T10:36:09;4.60;;;1.40;;
5821;SDS011;2937;48.562;8.022;2023-09-18T10:41:03;2.87;;;1.30;;
5821;SDS011;2937;48.562;8.022;2023-09-18T10:45:57;1.73;;;1.17;;
5821;SDS011;2937;48.562;8.022;2023-09-18T10:50:52;3.53;;;1.53;;
5821;SDS011;2937;48.562;8.022;2023-09-18T10:55:44;3.47;;;1.50;;
5821;SDS011;2937;48.562;8.022;2023-09-18T11:00:37;3.50;;;1.50;;
5821;SDS011;2937;48.562;8.022;2023-09-18T11:05:30;4.70;;;1.50;;
5821;SDS011;2937;48.562;8.022;2023-09-18T11:10:27;3.67;;;1.70;;
5821;SDS011;2937;48.562;8.022;2023-09-18T11:15:30;3.47;;;1.40;;
5821;SDS011;2937;48.562;8.022;2023-09-18T11:20:24;3.43;;;1.47;;
5821;SDS011;2937;48.562;8.022;2023-09-18T11:25:30;4.40;;;1.50;;
5821;SDS011;2937;48.562;8.022;2023-09-18T11:30:25;4.13;;;1.50;;
5821;SDS011;2937;48.562;8.022;2023-09-18T11:35:18;3.37;;;1.50;;
5821;SDS011;2937;48.562;8.022;2023-09-18T11:40:31;3.70;;;1.70;;
5821;SDS011;2937;48.562;8.022;2023-09-18T11:45:25;3.33;;;1.47;;
5821;SDS011;2937;48.562;8.022;2023-09-18T11:50:19;2.00;;;1.47;;
5821;SDS011;2937;48.562;8.022;2023-09-18T11:55:13;2.83;;;1.47;;
5821;SDS011;2937;48.562;8.022;2023-09-18T12:00:08;4.17;;;1.67;;
5821;SDS011;2937;48.562;8.022;2023-09-18T12:05:13;3.60;;;1.43;;
5821;SDS011;2937;48.562;8.022;2023-09-18T12:10:07;3.17;;;1.47;;
5821;SDS011;2937;48.562;8.022;2023-09-18T12:15:00;5.07;;;1.80;;
5821;SDS011;2937;48.562;8.022;2023-09-18T12:19:56;1.50;;;1.33;;
5821;SDS011;2937;48.562;8.022;2023-09-18T12:24:49;2.73;;;1.63;;
5821;SDS011;2937;48.562;8.022;2023-09-18T12:29:42;2.30;;;1.57;;
5821;SDS011;2937;48.562;8.022;2023-09-18T12:34:35;4.17;;;1.50;;
5821;SDS011;2937;48.562;8.022;2023-09-18T12:39:32;3.43;;;1.43;;
5821;SDS011;2937;48.562;8.022;2023-09-18T12:44:25;3.20;;;1.50;;
5821;SDS011;2937;48.562;8.022;2023-09-18T12:49:18;2.90;;;1.63;;
5821;SDS011;2937;48.562;8.022;2023-09-18T12:54:11;3.80;;;1.40;;
5821;SDS011;2937;48.562;8.022;2023-09-18T12:59:06;3.70;;;1.50;;
5821;SDS011;2937;48.562;8.022;2023-09-18T13:04:06;3.40;;;1.83;;
5821;SDS011;2937;48.562;8.022;2023-09-18T13:09:16;1.80;;;1.37;;
5821;SDS011;2937;48.562;8.022;2023-09-18T13:14:10;2.77;;;1.50;;
5821;SDS011;2937;48.562;8.022;2023-09-18T13:19:03;2.33;;;1.50;;
5821;SDS011;2937;48.562;8.022;2023-09-18T13:23:56;2.93;;;1.43;;
5821;SDS011;2937;48.562;8.022;2023-09-18T13:28:49;5.10;;;1.40;;
5821;SDS011;2937;48.562;8.022;2023-09-18T13:33:43;3.23;;;1.80;;
5821;SDS011;2937;48.562;8.022;2023-09-18T13:38:36;2.80;;;1.53;;
5821;SDS011;2937;48.562;8.022;2023-09-18T13:43:29;3.30;;;1.20;;
5821;SDS011;2937;48.562;8.022;2023-09-18T13:48:26;2.73;;;1.40;;
5821;SDS011;2937;48.562;8.022;2023-09-18T13:53:21;2.27;;;1.70;;
5821;SDS011;2937;48.562;8.022;2023-09-18T13:58:14;1.90;;;1.20;;
5821;SDS011;2937;48.562;8.022;2023-09-18T14:03:06;2.10;;;1.30;;
5821;SDS011;2937;48.562;8.022;2023-09-18T14:08:00;3.20;;;1.53;;
5821;SDS011;2937;48.562;8.022;2023-09-18T14:12:55;3.27;;;1.50;;
5821;SDS011;2937;48.562;8.022;2023-09-18T14:17:48;3.33;;;1.50;;
5821;SDS011;2937;48.562;8.022;2023-09-18T14:22:41;4.77;;;1.60;;
5821;SDS011;2937;48.562;8.022;2023-09-18T14:27:34;2.20;;;1.70;;
5821;SDS011;2937;48.562;8.022;2023-09-18T14:32:28;3.23;;;1.73;;
5821;SDS011;2937;48.562;8.022;2023-09-18T14:37:21;2.07;;;1.47;;
5821;SDS011;2937;48.562;8.022;2023-09-18T14:42:14;5.30;;;1.60;;
5821;SDS011;2937;48.562;8.022;2023-09-18T14:47:07;3.63;;;1.50;;
5821;SDS011;2937;48.562;8.022;2023-09-18T14:52:01;5.10;;;1.87;;
5821;SDS011;2937;48.562;8.022;2023-09-18T14:56:54;2.80;;;1.73;;
5821;SDS011;2937;48.562;8.022;2023-09-18T15:01:47;5.20;;;2.00;;
5821;SDS011;2937;48.562;8.022;2023-09-18T15:06:40;4.60;;;1.60;;
5821;SDS011;2937;48.562;8.022;2023-09-18T15:11:35;4.13;;;1.77;;
5821;SDS011;2937;48.562;8.022;2023-09-18T15:16:28;2.90;;;1.50;;
5821;SDS011;2937;48.562;8.022;2023-09-18T15:21:21;2.80;;;1.60;;
5821;SDS011;2937;48.562;8.022;2023-09-18T15:26:14;4.13;;;1.70;;
5821;SDS011;2937;48.562;8.022;2023-09-18T15:31:08;3.50;;;1.73;;
5821;SDS011;2937;48.562;8.022;2023-09-18T15:36:01;3.80;;;1.80;;
5821;SDS011;2937;48.562;8.022;2023-09-18T15:40:53;3.60;;;1.87;;
5821;SDS011;2937;48.562;8.022;2023-09-18T15:45:46;3.17;;;1.97;;
5821;SDS011;2937;48.562;8.022;2023-09-18T15:50:40;3.17;;;1.90;;
5821;SDS011;2937;48.562;8.022;2023-09-18T15:55:33;3.87;;;1.90;;
5821;SDS011;2937;48.562;8.022;2023-09-18T16:00:27;2.63;;;1.93;;
5821;SDS011;2937;48.562;8.022;2023-09-18T16:05:19;4.13;;;1.87;;
5821;SDS011;2937;48.562;8.022;2023-09-18T16:10:18;3.40;;;1.80;;
5821;SDS011;2937;48.562;8.022;2023-09-18T16:15:11;2.97;;;1.80;;
5821;SDS011;2937;48.562;8.022;2023-09-18T16:20:06;3.20;;;2.00;;
5821;SDS011;2937;48.562;8.022;2023-09-18T16:24:59;3.97;;;2.00;;
5821;SDS011;2937;48.562;8.022;2023-09-18T16:29:53;3.13;;;2.00;;
5821;SDS011;2937;48.562;8.022;2023-09-18T16:34:45;4.27;;;2.03;;
5821;SDS011;2937;48.562;8.022;2023-09-18T16:39:38;5.10;;;1.90;;
5821;SDS011;2937;48.562;8.022;2023-09-18T16:44:30;3.70;;;2.10;;
5821;SDS011;2937;48.562;8.022;2023-09-18T16:49:24;4.93;;;2.00;;
5821;SDS011;2937;48.562;8.022;2023-09-18T16:54:18;2.60;;;2.00;;
5821;SDS011;2937;48.562;8.022;2023-09-18T16:59:12;3.60;;;1.87;;
5821;SDS011;2937;48.562;8.022;2023-09-18T17:04:05;3.90;;;1.90;;
5821;SDS011;2937;48.562;8.022;2023-09-18T17:08:59;3.50;;;2.00;;
5821;SDS011;2937;48.562;8.022;2023-09-18T17:13:52;3.17;;;1.43;;
5821;SDS011;2937;48.562;8.022;2023-09-18T17:18:46;3.30;;;1.40;;
5821;SDS011;2937;48.562;8.022;2023-09-18T17:23:38;2.23;;;1.20;;
5821;SDS011;2937;48.562;8.022;2023-09-18T17:28:34;2.30;;;1.10;;
5821;SDS011;2937;48.562;8.022;2023-09-18T17:33:27;3.00;;;1.23;;
5821;SDS011;2937;48.562;8.022;2023-09-18T17:38:19;8.10;;;2.40;;
5821;SDS011;2937;48.562;8.022;2023-09-18T17:43:12;0.90;;;0.60;;
5821;SDS011;2937;48.562;8.022;2023-09-18T17:48:06;0.90;;;0.60;;
5821;SDS011;2937;48.562;8.022;2023-09-18T17:52:59;0.80;;;0.60;;
5821;SDS011;2937;48.562;8.022;2023-09-18T17:57:52;0.80;;;0.60;;
5821;SDS011;2937;48.562;8.022;2023-09-18T18:02:48;0.80;;;0.60;;
5821;SDS011;2937;48.562;8.022;2023-09-18T18:07:42;0.80;;;0.60;;
5821;SDS011;2937;48.562;8.022;2023-09-18T18:12:37;0.80;;;0.60;;
5821;SDS011;2937;48.562;8.022;2023-09-18T18:17:30;0.80;;;0.60;;
5821;SDS011;2937;48.562;8.022;2023-09-18T18:22:23;0.80;;;0.60;;
5821;SDS011;2937;48.562;8.022;2023-09-18T18:27:17;0.80;;;0.60;;
5821;SDS011;2937;48.562;8.022;2023-09-18T18:32:11;0.80;;;0.60;;
5821;SDS011;2937;48.562;8.022;2023-09-18T18:37:03;0.80;;;0.60;;
5821;SDS011;2937;48.562;8.022;2023-09-18T18:41:56;0.80;;;0.60;;
5821;SDS011;2937;48.562;8.022;2023-09-18T18:46:50;0.80;;;0.60;;
5821;SDS011;2937;48.562;8.022;2023-09-18T18:51:43;0.80;;;0.60;;
5821;SDS011;2937;48.562;8.022;2023-09-18T18:56:37;0.80;;;0.60;;
5821;SDS011;2937;48.562;8.022;2023-09-18T19:01:30;0.80;;;0.60;;
5821;SDS011;2937;48.562;8.022;2023-09-18T19:06:24;0.80;;;0.60;;
5821;SDS011;2937;48.562;8.022;2023-09-18T19:11:16;0.80;;;0.60;;
5821;SDS011;2937;48.562;8.022;2023-09-18T19:16:09;0.80;;;0.60;;
5821;SDS011;2937;48.562;8.022;2023-09-18T19:21:03;0.80;;;0.60;;
5821;SDS011;2937;48.562;8.022;2023-09-18T19:25:59;0.80;;;0.60;;
5821;SDS011;2937;48.562;8.022;2023-09-18T19:30:53;0.80;;;0.60;;
5821;SDS011;2937;48.562;8.022;2023-09-18T19:35:48;0.80;;;0.60;;
5821;SDS011;2937;48.562;8.022;2023-09-18T19:40:42;0.80;;;0.60;;
5821;SDS011;2937;48.562;8.022;2023-09-18T19:45:37;3.80;;;1.77;;
5821;SDS011;2937;48.562;8.022;2023-09-18T19:50:29;5.17;;;2.00;;
5821;SDS011;2937;48.562;8.022;2023-09-18T19:55:23;2.83;;;1.93;;
5821;SDS011;2937;48.562;8.022;2023-09-18T20:00:20;2.40;;;1.70;;
5821;SDS011;2937;48.562;8.022;2023-09-18T20:05:15;2.93;;;1.70;;
5821;SDS011;2937;48.562;8.022;2023-09-18T20:10:07;3.00;;;1.50;;
5821;SDS011;2937;48.562;8.022;2023-09-18T20:15:02;2.23;;;1.50;;
5821;SDS011;2937;48.562;8.022;2023-09-18T20:19:56;2.77;;;1.57;;
5821;SDS011;2937;48.562;8.022;2023-09-18T20:24:50;2.17;;;1.80;;
5821;SDS011;2937;48.562;8.022;2023-09-18T20:29:42;2.30;;;1.70;;
5821;SDS011;2937;48.562;8.022;2023-09-18T20:34:35;2.97;;;1.63;;
5821;SDS011;2937;48.562;8.022;2023-09-18T20:39:28;4.67;;;1.77;;
5821;SDS011;2937;48.562;8.022;2023-09-18T20:44:22;2.70;;;1.90;;
5821;SDS011;2937;48.562;8.022;2023-09-18T20:49:15;3.43;;;1.60;;
5821;SDS011;2937;48.562;8.022;2023-09-18T20:54:08;2.43;;;1.93;;
5821;SDS011;2937;48.562;8.022;2023-09-18T20:59:03;4.67;;;1.47;;
5821;SDS011;2937;48.562;8.022;2023-09-18T21:03:59;2.97;;;1.83;;
5821;SDS011;2937;48.562;8.022;2023-09-18T21:08:55;3.30;;;1.70;;
5821;SDS011;2937;48.562;8.022;2023-09-18T21:13:48;1.80;;;1.63;;
5821;SDS011;2937;48.562;8.022;2023-09-18T21:18:41;4.83;;;2.53;;
5821;SDS011;2937;48.562;8.022;2023-09-18T21:23:35;2.83;;;1.80;;
5821;SDS011;2937;48.562;8.022;2023-09-18T21:28:28;5.60;;;1.70;;
5821;SDS011;2937;48.562;8.022;2023-09-18T21:33:21;4.93;;;2.57;;
5821;SDS011;2937;48.562;8.022;2023-09-18T21:38:14;3.67;;;2.20;;
5821;SDS011;2937;48.562;8.022;2023-09-18T21:43:07;4.83;;;2.60;;
5821;SDS011;2937;48.562;8.022;2023-09-18T21:48:00;3.33;;;2.40;;
5821;SDS011;2937;48.562;8.022;2023-09-18T21:52:53;3.90;;;2.47;;
5821;SDS011;2937;48.562;8.022;2023-09-18T21:57:46;3.10;;;2.30;;
5821;SDS011;2937;48.562;8.022;2023-09-18T22:02:40;5.77;;;2.40;;
5821;SDS011;2937;48.562;8.022;2023-09-18T22:07:33;2.83;;;2.10;;
5821;SDS011;2937;48.562;8.022;2023-09-18T22:12:26;2.63;;;2.10;;
5821;SDS011;2937;48.562;8.022;2023-09-18T22:17:18;3.80;;;2.57;;
5821;SDS011;2937;48.562;8.022;2023-09-18T22:22:12;3.20;;;1.90;;
5821;SDS011;2937;48.562;8.022;2023-09-18T22:27:05;5.17;;;2.40;;
5821;SDS011;2937;48.562;8.022;2023-09-18T22:31:59;4.60;;;2.47;;
5821;SDS011;2937;48.562;8.022;2023-09-18T22:36:51;2.90;;;2.40;;
5821;SDS011;2937;48.562;8.022;2023-09-18T22:57:06;3.47;;;2.80;;
5821;SDS011;2937;48.562;8.022;2023-09-18T23:01:59;2.60;;;2.33;;
5821;SDS011;2937;48.562;8.022;2023-09-18T23:06:54;6.03;;;2.30;;
5821;SDS011;2937;48.562;8.022;2023-09-18T23:11:55;3.83;;;2.20;;
5821;SDS011;2937;48.562;8.022;2023-09-18T23:16:49;4.07;;;2.60;;
5821;SDS011;2937;48.562;8.022;2023-09-18T23:21:43;4.70;;;2.80;;
5821;SDS011;2937;48.562;8.022;2023-09-18T23:26:38;5.70;;;2.30;;
5821;SDS011;2937;48.562;8.022;2023-09-18T23:31:31;3.43;;;2.10;;
5821;SDS011;2937;48.562;8.022;2023-09-18T23:36:25;2.80;;;2.13;;
5821;SDS011;2937;48.562;8.022;2023-09-18T23:41:19;2.40;;;2.20;;
5821;SDS011;2937;48.562;8.022;2023-09-18T23:46:24;3.03;;;2.20;;
5821;SDS011;2937;48.562;8.022;2023-09-18T23:51:17;3.77;;;2.40;;
5821;SDS011;2937;48.562;8.022;2023-09-18T23:56:12;3.77;;;2.00;;
